sensor_id;sensor_type;location;lat;lon;timestamp;P1;durP1;ratioP1;P2;durP2;ratioP2
59828;SDS011;45708;51.848;107.620;2023-04-25T00:02:51;13.95;;;6.80;;
59828;SDS011;45708;51.848;107.620;2023-04-25T00:07:51;9.95;;;5.78;;
59828;SDS011;45708;51.848;107.620;2023-04-25T00:12:52;18.27;;;7.28;;
59828;SDS011;45708;51.848;107.620;2023-04-25T00:17:53;14.05;;;6.80;;
59828;SDS011;45708;51.848;107.620;2023-04-25T00:22:54;16.75;;;7.03;;
59828;SDS011;45708;51.848;107.620;2023-04-25T00:27:55;10.10;;;4.97;;
59828;SDS011;45708;51.848;107.620;2023-04-25T00:32:56;13.43;;;5.18;;
59828;SDS011;45708;51.848;107.620;2023-04-25T00:37:57;9.57;;;4.70;;
59828;SDS011;45708;51.848;107.620;2023-04-25T00:42:58;9.68;;;3.67;;
59828;SDS011;45708;51.848;107.620;2023-04-25T00:47:58;10.68;;;4.75;;
59828;SDS011;45708;51.848;107.620;2023-04-25T00:53:00;8.25;;;4.60;;
59828;SDS011;45708;51.848;107.620;2023-04-25T00:58:01;7.05;;;2.80;;
59828;SDS011;45708;51.848;107.620;2023-04-25T01:03:02;6.38;;;3.17;;
59828;SDS011;45708;51.848;107.620;2023-04-25T01:08:03;5.15;;;2.78;;
59828;SDS011;45708;51.848;107.620;2023-04-25T01:13:05;12.52;;;3.90;;
59828;SDS011;45708;51.848;107.620;2023-04-25T01:18:06;9.43;;;2.92;;
59828;SDS011;45708;51.848;107.620;2023-04-25T01:23:07;6.03;;;3.03;;
59828;SDS011;45708;51.848;107.620;2023-04-25T01:28:08;3.90;;;2.63;;
59828;SDS011;45708;51.848;107.620;2023-04-25T01:33:09;4.63;;;3.40;;
59828;SDS011;45708;51.848;107.620;2023-04-25T01:38:12;6.07;;;3.20;;
59828;SDS011;45708;51.848;107.620;2023-04-25T01:43:13;14.02;;;3.75;;
59828;SDS011;45708;51.848;107.620;2023-04-25T01:48:14;7.97;;;4.13;;
59828;SDS011;45708;51.848;107.620;2023-04-25T01:53:15;10.23;;;5.07;;
59828;SDS011;45708;51.848;107.620;2023-04-25T01:58:16;4.65;;;3.33;;
59828;SDS011;45708;51.848;107.620;2023-04-25T02:03:16;14.30;;;4.75;;
59828;SDS011;45708;51.848;107.620;2023-04-25T02:08:17;10.57;;;4.57;;
59828;SDS011;45708;51.848;107.620;2023-04-25T02:13:18;5.53;;;3.95;;
59828;SDS011;45708;51.848;107.620;2023-04-25T02:18:19;6.30;;;3.72;;
59828;SDS011;45708;51.848;107.620;2023-04-25T02:23:20;7.60;;;5.03;;
59828;SDS011;45708;51.848;107.620;2023-04-25T02:28:20;9.57;;;4.60;;
59828;SDS011;45708;51.848;107.620;2023-04-25T02:33:21;13.52;;;5.63;;
59828;SDS011;45708;51.848;107.620;2023-04-25T02:38:22;8.18;;;5.03;;
59828;SDS011;45708;51.848;107.620;2023-04-25T02:43:23;8.98;;;5.35;;
59828;SDS011;45708;51.848;107.620;2023-04-25T02:48:23;14.93;;;5.25;;
59828;SDS011;45708;51.848;107.620;2023-04-25T02:53:24;10.35;;;5.65;;
59828;SDS011;45708;51.848;107.620;2023-04-25T02:58:25;9.57;;;4.82;;
59828;SDS011;45708;51.848;107.620;2023-04-25T03:03:26;12.35;;;5.68;;
59828;SDS011;45708;51.848;107.620;2023-04-25T03:08:26;14.35;;;5.72;;
59828;SDS011;45708;51.848;107.620;2023-04-25T03:13:27;11.00;;;4.82;;
59828;SDS011;45708;51.848;107.620;2023-04-25T03:18:28;10.55;;;4.80;;
59828;SDS011;45708;51.848;107.620;2023-04-25T03:23:29;14.32;;;4.55;;
59828;SDS011;45708;51.848;107.620;2023-04-25T03:28:30;7.82;;;3.95;;
59828;SDS011;45708;51.848;107.620;2023-04-25T03:33:30;9.82;;;3.25;;
59828;SDS011;45708;51.848;107.620;2023-04-25T03:38:31;4.38;;;3.80;;
59828;SDS011;45708;51.848;107.620;2023-04-25T03:43:32;6.75;;;2.17;;
59828;SDS011;45708;51.848;107.620;2023-04-25T03:48:33;4.40;;;2.95;;
59828;SDS011;45708;51.848;107.620;2023-04-25T03:53:34;4.28;;;2.75;;
59828;SDS011;45708;51.848;107.620;2023-04-25T03:58:35;6.82;;;3.38;;
59828;SDS011;45708;51.848;107.620;2023-04-25T04:03:36;8.13;;;3.25;;
59828;SDS011;45708;51.848;107.620;2023-04-25T04:08:37;4.90;;;2.75;;
59828;SDS011;45708;51.848;107.620;2023-04-25T04:13:38;10.13;;;3.88;;
59828;SDS011;45708;51.848;107.620;2023-04-25T04:18:39;9.82;;;3.72;;
59828;SDS011;45708;51.848;107.620;2023-04-25T04:23:40;7.57;;;3.85;;
59828;SDS011;45708;51.848;107.620;2023-04-25T04:28:41;7.43;;;2.80;;
59828;SDS011;45708;51.848;107.620;2023-04-25T04:33:43;5.70;;;2.50;;
59828;SDS011;45708;51.848;107.620;2023-04-25T04:38:44;3.15;;;2.65;;
59828;SDS011;45708;51.848;107.620;2023-04-25T04:43:44;12.23;;;3.42;;
59828;SDS011;45708;51.848;107.620;2023-04-25T04:48:45;7.47;;;3.30;;
59828;SDS011;45708;51.848;107.620;2023-04-25T04:53:46;11.13;;;3.42;;
59828;SDS011;45708;51.848;107.620;2023-04-25T04:58:47;4.25;;;2.63;;
59828;SDS011;45708;51.848;107.620;2023-04-25T05:03:48;6.28;;;2.80;;
59828;SDS011;45708;51.848;107.620;2023-04-25T05:08:49;6.65;;;3.13;;
59828;SDS011;45708;51.848;107.620;2023-04-25T05:13:51;5.70;;;2.60;;
59828;SDS011;45708;51.848;107.620;2023-04-25T05:18:53;3.65;;;2.30;;
59828;SDS011;45708;51.848;107.620;2023-04-25T05:23:53;3.90;;;2.42;;
59828;SDS011;45708;51.848;107.620;2023-04-25T05:28:54;8.05;;;2.42;;
59828;SDS011;45708;51.848;107.620;2023-04-25T05:33:55;4.68;;;2.38;;
59828;SDS011;45708;51.848;107.620;2023-04-25T05:38:56;4.75;;;2.60;;
59828;SDS011;45708;51.848;107.620;2023-04-25T05:43:57;9.90;;;4.18;;
59828;SDS011;45708;51.848;107.620;2023-04-25T05:48:57;5.72;;;2.70;;
59828;SDS011;45708;51.848;107.620;2023-04-25T05:53:58;2.53;;;2.10;;
59828;SDS011;45708;51.848;107.620;2023-04-25T05:58:59;8.35;;;2.88;;
59828;SDS011;45708;51.848;107.620;2023-04-25T06:04:00;3.15;;;1.95;;
59828;SDS011;45708;51.848;107.620;2023-04-25T06:09:01;3.70;;;2.38;;
59828;SDS011;45708;51.848;107.620;2023-04-25T06:14:01;2.38;;;1.88;;
59828;SDS011;45708;51.848;107.620;2023-04-25T06:19:02;7.20;;;2.55;;
59828;SDS011;45708;51.848;107.620;2023-04-25T06:24:03;7.18;;;2.70;;
59828;SDS011;45708;51.848;107.620;2023-04-25T06:29:04;2.00;;;1.80;;
59828;SDS011;45708;51.848;107.620;2023-04-25T06:34:05;4.75;;;2.67;;
59828;SDS011;45708;51.848;107.620;2023-04-25T06:39:06;3.80;;;2.05;;
59828;SDS011;45708;51.848;107.620;2023-04-25T06:44:07;4.55;;;1.60;;
59828;SDS011;45708;51.848;107.620;2023-04-25T06:49:07;7.65;;;2.33;;
59828;SDS011;45708;51.848;107.620;2023-04-25T06:54:08;6.88;;;2.00;;
59828;SDS011;45708;51.848;107.620;2023-04-25T06:59:09;1.67;;;1.58;;
59828;SDS011;45708;51.848;107.620;2023-04-25T07:04:10;1.75;;;1.27;;
59828;SDS011;45708;51.848;107.620;2023-04-25T07:09:11;2.35;;;1.95;;
59828;SDS011;45708;51.848;107.620;2023-04-25T07:14:12;2.30;;;2.10;;
59828;SDS011;45708;51.848;107.620;2023-04-25T07:19:12;3.92;;;2.10;;
59828;SDS011;45708;51.848;107.620;2023-04-25T07:24:13;5.95;;;3.78;;
59828;SDS011;45708;51.848;107.620;2023-04-25T07:29:14;11.55;;;2.67;;
59828;SDS011;45708;51.848;107.620;2023-04-25T07:34:15;3.17;;;2.25;;
59828;SDS011;45708;51.848;107.620;2023-04-25T07:39:15;11.32;;;5.38;;
59828;SDS011;45708;51.848;107.620;2023-04-25T07:44:16;13.38;;;4.38;;
59828;SDS011;45708;51.848;107.620;2023-04-25T07:49:17;8.02;;;3.92;;
59828;SDS011;45708;51.848;107.620;2023-04-25T07:54:18;6.32;;;2.67;;
59828;SDS011;45708;51.848;107.620;2023-04-25T07:59:19;13.93;;;2.83;;
59828;SDS011;45708;51.848;107.620;2023-04-25T08:04:20;7.47;;;2.42;;
59828;SDS011;45708;51.848;107.620;2023-04-25T08:09:21;4.18;;;2.20;;
59828;SDS011;45708;51.848;107.620;2023-04-25T08:14:22;6.97;;;2.42;;
59828;SDS011;45708;51.848;107.620;2023-04-25T08:19:22;2.15;;;1.92;;
59828;SDS011;45708;51.848;107.620;2023-04-25T08:24:23;6.85;;;3.35;;
59828;SDS011;45708;51.848;107.620;2023-04-25T08:29:24;3.08;;;1.92;;
59828;SDS011;45708;51.848;107.620;2023-04-25T08:34:25;7.78;;;3.20;;
59828;SDS011;45708;51.848;107.620;2023-04-25T08:39:26;3.75;;;2.60;;
59828;SDS011;45708;51.848;107.620;2023-04-25T08:44:27;16.25;;;7.53;;
59828;SDS011;45708;51.848;107.620;2023-04-25T08:49:28;4.80;;;2.92;;
59828;SDS011;45708;51.848;107.620;2023-04-25T08:54:31;4.22;;;2.00;;
59828;SDS011;45708;51.848;107.620;2023-04-25T08:59:32;7.93;;;3.15;;
59828;SDS011;45708;51.848;107.620;2023-04-25T09:04:35;3.03;;;2.10;;
59828;SDS011;45708;51.848;107.620;2023-04-25T09:09:36;4.43;;;2.22;;
59828;SDS011;45708;51.848;107.620;2023-04-25T09:14:37;8.80;;;3.55;;
59828;SDS011;45708;51.848;107.620;2023-04-25T09:19:38;5.22;;;2.78;;
59828;SDS011;45708;51.848;107.620;2023-04-25T09:24:40;7.90;;;2.90;;
59828;SDS011;45708;51.848;107.620;2023-04-25T09:29:45;3.53;;;2.67;;
59828;SDS011;45708;51.848;107.620;2023-04-25T09:34:49;4.05;;;2.42;;
59828;SDS011;45708;51.848;107.620;2023-04-25T09:39:53;4.25;;;2.90;;
59828;SDS011;45708;51.848;107.620;2023-04-25T09:44:55;12.70;;;3.08;;
59828;SDS011;45708;51.848;107.620;2023-04-25T09:49:57;6.35;;;3.17;;
59828;SDS011;45708;51.848;107.620;2023-04-25T09:54:58;7.75;;;2.95;;
59828;SDS011;45708;51.848;107.620;2023-04-25T10:00:00;8.07;;;3.85;;
59828;SDS011;45708;51.848;107.620;2023-04-25T10:05:01;21.63;;;3.80;;
59828;SDS011;45708;51.848;107.620;2023-04-25T10:10:06;4.80;;;2.58;;
59828;SDS011;45708;51.848;107.620;2023-04-25T10:15:07;6.68;;;3.58;;
59828;SDS011;45708;51.848;107.620;2023-04-25T10:20:09;7.00;;;2.92;;
59828;SDS011;45708;51.848;107.620;2023-04-25T10:25:10;5.72;;;2.08;;
59828;SDS011;45708;51.848;107.620;2023-04-25T10:30:14;4.57;;;2.50;;
59828;SDS011;45708;51.848;107.620;2023-04-25T10:40:24;5.28;;;3.53;;
59828;SDS011;45708;51.848;107.620;2023-04-25T10:45:24;4.80;;;3.00;;
59828;SDS011;45708;51.848;107.620;2023-04-25T10:50:31;10.68;;;4.20;;
59828;SDS011;45708;51.848;107.620;2023-04-25T10:55:49;11.93;;;4.65;;
59828;SDS011;45708;51.848;107.620;2023-04-25T11:00:51;14.60;;;5.82;;
59828;SDS011;45708;51.848;107.620;2023-04-25T11:05:52;10.70;;;5.75;;
59828;SDS011;45708;51.848;107.620;2023-04-25T11:10:54;16.40;;;5.32;;
59828;SDS011;45708;51.848;107.620;2023-04-25T11:15:55;16.35;;;4.95;;
59828;SDS011;45708;51.848;107.620;2023-04-25T11:20:56;18.73;;;7.55;;
59828;SDS011;45708;51.848;107.620;2023-04-25T11:25:57;23.60;;;9.48;;
59828;SDS011;45708;51.848;107.620;2023-04-25T11:30:58;20.88;;;10.50;;
59828;SDS011;45708;51.848;107.620;2023-04-25T11:35:59;19.77;;;9.10;;
59828;SDS011;45708;51.848;107.620;2023-04-25T11:41:00;22.38;;;9.85;;
59828;SDS011;45708;51.848;107.620;2023-04-25T11:46:00;28.08;;;13.43;;
59828;SDS011;45708;51.848;107.620;2023-04-25T11:51:01;66.10;;;30.92;;
59828;SDS011;45708;51.848;107.620;2023-04-25T11:56:02;44.55;;;21.70;;
59828;SDS011;45708;51.848;107.620;2023-04-25T12:01:10;44.33;;;19.63;;
59828;SDS011;45708;51.848;107.620;2023-04-25T12:06:11;27.25;;;12.32;;
59828;SDS011;45708;51.848;107.620;2023-04-25T12:11:21;18.30;;;8.98;;
59828;SDS011;45708;51.848;107.620;2023-04-25T12:16:22;14.80;;;6.88;;
59828;SDS011;45708;51.848;107.620;2023-04-25T12:21:23;9.95;;;4.85;;
59828;SDS011;45708;51.848;107.620;2023-04-25T12:26:45;6.10;;;2.65;;
59828;SDS011;45708;51.848;107.620;2023-04-25T12:31:50;8.93;;;5.60;;
59828;SDS011;45708;51.848;107.620;2023-04-25T12:36:52;7.60;;;5.05;;
59828;SDS011;45708;51.848;107.620;2023-04-25T12:41:53;4.32;;;3.92;;
59828;SDS011;45708;51.848;107.620;2023-04-25T12:46:54;4.50;;;4.10;;
59828;SDS011;45708;51.848;107.620;2023-04-25T12:51:54;7.75;;;3.55;;
59828;SDS011;45708;51.848;107.620;2023-04-25T12:56:55;8.02;;;3.88;;
59828;SDS011;45708;51.848;107.620;2023-04-25T13:01:56;9.48;;;3.78;;
59828;SDS011;45708;51.848;107.620;2023-04-25T13:06:57;13.65;;;7.78;;
59828;SDS011;45708;51.848;107.620;2023-04-25T13:11:58;14.00;;;6.00;;
59828;SDS011;45708;51.848;107.620;2023-04-25T13:16:59;10.77;;;3.83;;
59828;SDS011;45708;51.848;107.620;2023-04-25T13:21:59;16.17;;;5.40;;
59828;SDS011;45708;51.848;107.620;2023-04-25T13:27:00;20.50;;;10.73;;
59828;SDS011;45708;51.848;107.620;2023-04-25T13:32:01;29.67;;;15.65;;
59828;SDS011;45708;51.848;107.620;2023-04-25T13:37:02;26.25;;;13.13;;
59828;SDS011;45708;51.848;107.620;2023-04-25T13:42:03;16.40;;;8.65;;
59828;SDS011;45708;51.848;107.620;2023-04-25T13:47:04;20.38;;;10.63;;
59828;SDS011;45708;51.848;107.620;2023-04-25T13:52:05;41.67;;;12.63;;
59828;SDS011;45708;51.848;107.620;2023-04-25T13:57:06;34.90;;;14.68;;
59828;SDS011;45708;51.848;107.620;2023-04-25T14:02:07;43.20;;;19.90;;
59828;SDS011;45708;51.848;107.620;2023-04-25T14:07:08;65.90;;;24.70;;
59828;SDS011;45708;51.848;107.620;2023-04-25T14:12:08;64.60;;;28.00;;
59828;SDS011;45708;51.848;107.620;2023-04-25T14:17:09;68.63;;;28.75;;
59828;SDS011;45708;51.848;107.620;2023-04-25T14:22:11;96.25;;;36.95;;
59828;SDS011;45708;51.848;107.620;2023-04-25T14:27:11;59.67;;;25.00;;
59828;SDS011;45708;51.848;107.620;2023-04-25T14:32:12;54.50;;;23.63;;
59828;SDS011;45708;51.848;107.620;2023-04-25T14:37:13;55.25;;;23.50;;
59828;SDS011;45708;51.848;107.620;2023-04-25T14:42:15;54.42;;;23.15;;
59828;SDS011;45708;51.848;107.620;2023-04-25T14:47:15;54.28;;;24.65;;
59828;SDS011;45708;51.848;107.620;2023-04-25T14:52:18;54.40;;;24.73;;
59828;SDS011;45708;51.848;107.620;2023-04-25T14:57:19;53.50;;;22.45;;
59828;SDS011;45708;51.848;107.620;2023-04-25T15:02:19;40.55;;;18.52;;
59828;SDS011;45708;51.848;107.620;2023-04-25T15:07:20;53.88;;;19.83;;
59828;SDS011;45708;51.848;107.620;2023-04-25T15:12:21;39.55;;;18.40;;
59828;SDS011;45708;51.848;107.620;2023-04-25T15:17:22;40.15;;;18.90;;
59828;SDS011;45708;51.848;107.620;2023-04-25T15:22:23;33.75;;;16.55;;
59828;SDS011;45708;51.848;107.620;2023-04-25T15:27:24;52.70;;;21.23;;
59828;SDS011;45708;51.848;107.620;2023-04-25T15:32:25;72.03;;;25.52;;
59828;SDS011;45708;51.848;107.620;2023-04-25T15:37:26;76.18;;;29.70;;
59828;SDS011;45708;51.848;107.620;2023-04-25T15:42:28;62.88;;;28.23;;
59828;SDS011;45708;51.848;107.620;2023-04-25T15:47:29;59.88;;;26.15;;
59828;SDS011;45708;51.848;107.620;2023-04-25T15:52:30;66.70;;;31.02;;
59828;SDS011;45708;51.848;107.620;2023-04-25T15:57:34;55.63;;;22.92;;
59828;SDS011;45708;51.848;107.620;2023-04-25T16:02:36;52.92;;;21.40;;
59828;SDS011;45708;51.848;107.620;2023-04-25T16:07:38;46.40;;;20.08;;
59828;SDS011;45708;51.848;107.620;2023-04-25T16:12:39;51.28;;;22.42;;
59828;SDS011;45708;51.848;107.620;2023-04-25T16:17:41;60.78;;;27.38;;
59828;SDS011;45708;51.848;107.620;2023-04-25T16:22:42;50.85;;;22.23;;
59828;SDS011;45708;51.848;107.620;2023-04-25T16:27:43;48.25;;;20.75;;
59828;SDS011;45708;51.848;107.620;2023-04-25T16:32:44;47.22;;;20.83;;
59828;SDS011;45708;51.848;107.620;2023-04-25T16:37:45;42.90;;;17.27;;
59828;SDS011;45708;51.848;107.620;2023-04-25T16:42:47;48.67;;;21.05;;
59828;SDS011;45708;51.848;107.620;2023-04-25T16:47:48;35.65;;;17.25;;
59828;SDS011;45708;51.848;107.620;2023-04-25T16:52:49;39.95;;;18.08;;
59828;SDS011;45708;51.848;107.620;2023-04-25T16:57:50;33.10;;;14.93;;
59828;SDS011;45708;51.848;107.620;2023-04-25T17:02:51;33.78;;;14.50;;
59828;SDS011;45708;51.848;107.620;2023-04-25T17:07:52;43.95;;;19.45;;
59828;SDS011;45708;51.848;107.620;2023-04-25T17:12:53;50.97;;;22.65;;
59828;SDS011;45708;51.848;107.620;2023-04-25T17:17:54;59.03;;;27.00;;
59828;SDS011;45708;51.848;107.620;2023-04-25T17:22:54;60.22;;;24.98;;
59828;SDS011;45708;51.848;107.620;2023-04-25T17:27:55;54.03;;;25.52;;
59828;SDS011;45708;51.848;107.620;2023-04-25T17:32:57;56.45;;;24.35;;
59828;SDS011;45708;51.848;107.620;2023-04-25T17:37:58;54.03;;;23.23;;
59828;SDS011;45708;51.848;107.620;2023-04-25T17:42:59;47.05;;;21.63;;
59828;SDS011;45708;51.848;107.620;2023-04-25T17:48:00;56.50;;;25.50;;
59828;SDS011;45708;51.848;107.620;2023-04-25T17:53:01;57.78;;;25.48;;
59828;SDS011;45708;51.848;107.620;2023-04-25T17:58:02;57.97;;;25.90;;
59828;SDS011;45708;51.848;107.620;2023-04-25T18:03:03;67.22;;;28.33;;
59828;SDS011;45708;51.848;107.620;2023-04-25T18:08:04;79.13;;;29.50;;
59828;SDS011;45708;51.848;107.620;2023-04-25T18:13:05;64.32;;;26.75;;
59828;SDS011;45708;51.848;107.620;2023-04-25T18:18:06;68.03;;;28.88;;
59828;SDS011;45708;51.848;107.620;2023-04-25T18:23:06;60.70;;;26.52;;
59828;SDS011;45708;51.848;107.620;2023-04-25T18:28:07;56.97;;;26.08;;
59828;SDS011;45708;51.848;107.620;2023-04-25T18:33:08;56.38;;;25.10;;
59828;SDS011;45708;51.848;107.620;2023-04-25T18:38:09;38.38;;;18.35;;
59828;SDS011;45708;51.848;107.620;2023-04-25T18:43:10;41.20;;;20.15;;
59828;SDS011;45708;51.848;107.620;2023-04-25T18:48:10;42.00;;;19.15;;
59828;SDS011;45708;51.848;107.620;2023-04-25T18:53:11;44.67;;;20.80;;
59828;SDS011;45708;51.848;107.620;2023-04-25T18:58:12;54.90;;;20.73;;
59828;SDS011;45708;51.848;107.620;2023-04-25T19:03:13;53.33;;;20.50;;
59828;SDS011;45708;51.848;107.620;2023-04-25T19:08:14;51.85;;;22.33;;
59828;SDS011;45708;51.848;107.620;2023-04-25T19:13:14;42.53;;;18.02;;
59828;SDS011;45708;51.848;107.620;2023-04-25T19:18:15;59.30;;;24.00;;
59828;SDS011;45708;51.848;107.620;2023-04-25T19:23:16;55.72;;;23.55;;
59828;SDS011;45708;51.848;107.620;2023-04-25T19:28:17;66.20;;;25.85;;
59828;SDS011;45708;51.848;107.620;2023-04-25T19:33:18;50.72;;;19.75;;
59828;SDS011;45708;51.848;107.620;2023-04-25T19:38:19;55.45;;;25.10;;
59828;SDS011;45708;51.848;107.620;2023-04-25T19:43:20;59.25;;;26.25;;
59828;SDS011;45708;51.848;107.620;2023-04-25T19:48:20;58.53;;;22.48;;
59828;SDS011;45708;51.848;107.620;2023-04-25T19:53:21;50.65;;;20.98;;
59828;SDS011;45708;51.848;107.620;2023-04-25T19:58:22;50.88;;;21.15;;
59828;SDS011;45708;51.848;107.620;2023-04-25T20:03:23;57.70;;;22.90;;
59828;SDS011;45708;51.848;107.620;2023-04-25T20:08:24;23.73;;;10.82;;
59828;SDS011;45708;51.848;107.620;2023-04-25T20:13:25;30.83;;;14.20;;
59828;SDS011;45708;51.848;107.620;2023-04-25T20:18:25;43.33;;;19.45;;
59828;SDS011;45708;51.848;107.620;2023-04-25T20:23:26;53.63;;;21.88;;
59828;SDS011;45708;51.848;107.620;2023-04-25T20:28:27;40.83;;;18.25;;
59828;SDS011;45708;51.848;107.620;2023-04-25T20:33:29;47.00;;;19.98;;
59828;SDS011;45708;51.848;107.620;2023-04-25T20:38:30;54.28;;;22.27;;
59828;SDS011;45708;51.848;107.620;2023-04-25T20:43:31;48.65;;;21.63;;
59828;SDS011;45708;51.848;107.620;2023-04-25T20:48:32;55.00;;;21.80;;
59828;SDS011;45708;51.848;107.620;2023-04-25T20:53:33;36.05;;;18.02;;
59828;SDS011;45708;51.848;107.620;2023-04-25T20:58:35;39.50;;;18.65;;
59828;SDS011;45708;51.848;107.620;2023-04-25T21:03:36;34.85;;;17.15;;
59828;SDS011;45708;51.848;107.620;2023-04-25T21:08:37;48.30;;;17.52;;
59828;SDS011;45708;51.848;107.620;2023-04-25T21:13:38;41.47;;;18.52;;
59828;SDS011;45708;51.848;107.620;2023-04-25T21:18:38;35.42;;;17.52;;
59828;SDS011;45708;51.848;107.620;2023-04-25T21:23:40;37.37;;;16.23;;
59828;SDS011;45708;51.848;107.620;2023-04-25T21:28:41;31.58;;;15.40;;
59828;SDS011;45708;51.848;107.620;2023-04-25T21:33:42;36.03;;;17.98;;
59828;SDS011;45708;51.848;107.620;2023-04-25T21:38:42;29.27;;;13.65;;
59828;SDS011;45708;51.848;107.620;2023-04-25T21:43:43;42.15;;;17.15;;
59828;SDS011;45708;51.848;107.620;2023-04-25T21:48:44;45.97;;;18.63;;
59828;SDS011;45708;51.848;107.620;2023-04-25T21:53:45;40.97;;;17.83;;
59828;SDS011;45708;51.848;107.620;2023-04-25T21:58:45;42.10;;;19.03;;
59828;SDS011;45708;51.848;107.620;2023-04-25T22:03:46;38.55;;;19.65;;
59828;SDS011;45708;51.848;107.620;2023-04-25T22:08:47;38.53;;;18.35;;
59828;SDS011;45708;51.848;107.620;2023-04-25T22:13:48;38.88;;;18.65;;
59828;SDS011;45708;51.848;107.620;2023-04-25T22:18:49;53.13;;;27.30;;
59828;SDS011;45708;51.848;107.620;2023-04-25T22:23:50;68.65;;;29.52;;
59828;SDS011;45708;51.848;107.620;2023-04-25T22:28:51;63.03;;;30.05;;
59828;SDS011;45708;51.848;107.620;2023-04-25T22:33:52;62.83;;;31.40;;
59828;SDS011;45708;51.848;107.620;2023-04-25T22:38:52;44.55;;;22.88;;
59828;SDS011;45708;51.848;107.620;2023-04-25T22:43:53;42.88;;;21.55;;
59828;SDS011;45708;51.848;107.620;2023-04-25T22:48:54;51.25;;;22.15;;
59828;SDS011;45708;51.848;107.620;2023-04-25T22:53:55;46.53;;;23.83;;
59828;SDS011;45708;51.848;107.620;2023-04-25T22:58:56;49.97;;;22.95;;
59828;SDS011;45708;51.848;107.620;2023-04-25T23:03:57;42.85;;;19.77;;
59828;SDS011;45708;51.848;107.620;2023-04-25T23:08:57;40.60;;;20.13;;
59828;SDS011;45708;51.848;107.620;2023-04-25T23:13:58;50.95;;;24.95;;
59828;SDS011;45708;51.848;107.620;2023-04-25T23:18:59;51.72;;;23.75;;
59828;SDS011;45708;51.848;107.620;2023-04-25T23:24:00;51.83;;;25.17;;
59828;SDS011;45708;51.848;107.620;2023-04-25T23:29:00;46.45;;;23.92;;
59828;SDS011;45708;51.848;107.620;2023-04-25T23:34:01;48.05;;;22.13;;
59828;SDS011;45708;51.848;107.620;2023-04-25T23:39:02;56.42;;;25.90;;
59828;SDS011;45708;51.848;107.620;2023-04-25T23:44:03;57.88;;;23.67;;
59828;SDS011;45708;51.848;107.620;2023-04-25T23:49:04;48.03;;;21.02;;
59828;SDS011;45708;51.848;107.620;2023-04-25T23:54:04;64.25;;;29.73;;
59828;SDS011;45708;51.848;107.620;2023-04-25T23:59:05;24.55;;;10.50;;
